sensor_id;sensor_type;location;lat;lon;timestamp;temperature;humidity
79187;SHT31;68762;51.980;5.646;2023-04-03T00:01:29;7.4;53.3
79187;SHT31;68762;51.980;5.646;2023-04-03T00:03:58;7.4;53.0
79187;SHT31;68762;51.980;5.646;2023-04-03T00:06:27;7.4;53.3
79187;SHT31;68762;51.980;5.646;2023-04-03T00:08:55;7.3;53.5
79187;SHT31;68762;51.980;5.646;2023-04-03T00:11:26;7.3;53.5
79187;SHT31;68762;51.980;5.646;2023-04-03T00:13:55;7.3;53.4
79187;SHT31;68762;51.980;5.646;2023-04-03T00:16:24;7.2;53.2
79187;SHT31;68762;51.980;5.646;2023-04-03T00:18:52;7.2;53.3
79187;SHT31;68762;51.980;5.646;2023-04-03T00:21:21;7.2;53.5
79187;SHT31;68762;51.980;5.646;2023-04-03T00:23:50;7.2;53.4
79187;SHT31;68762;51.980;5.646;2023-04-03T00:26:18;7.1;53.8
79187;SHT31;68762;51.980;5.646;2023-04-03T00:28:47;7.1;53.5
79187;SHT31;68762;51.980;5.646;2023-04-03T00:31:17;7.1;53.4
79187;SHT31;68762;51.980;5.646;2023-04-03T00:33:48;7.1;53.3
79187;SHT31;68762;51.980;5.646;2023-04-03T00:36:16;7.0;53.7
79187;SHT31;68762;51.980;5.646;2023-04-03T00:38:45;7.0;53.8
79187;SHT31;68762;51.980;5.646;2023-04-03T00:41:16;7.0;53.9
79187;SHT31;68762;51.980;5.646;2023-04-03T00:43:45;7.0;53.8
79187;SHT31;68762;51.980;5.646;2023-04-03T00:46:14;6.9;53.8
79187;SHT31;68762;51.980;5.646;2023-04-03T00:48:45;6.9;53.7
79187;SHT31;68762;51.980;5.646;2023-04-03T00:51:17;6.9;54.1
79187;SHT31;68762;51.980;5.646;2023-04-03T00:53:51;6.9;53.7
79187;SHT31;68762;51.980;5.646;2023-04-03T00:56:25;6.9;54.1
79187;SHT31;68762;51.980;5.646;2023-04-03T00:59:00;6.8;54.2
79187;SHT31;68762;51.980;5.646;2023-04-03T01:01:32;6.8;54.3
79187;SHT31;68762;51.980;5.646;2023-04-03T01:04:02;6.8;54.2
79187;SHT31;68762;51.980;5.646;2023-04-03T01:06:36;6.8;54.3
79187;SHT31;68762;51.980;5.646;2023-04-03T01:09:06;6.8;54.4
79187;SHT31;68762;51.980;5.646;2023-04-03T01:11:34;6.7;54.3
79187;SHT31;68762;51.980;5.646;2023-04-03T01:14:05;6.7;54.1
79187;SHT31;68762;51.980;5.646;2023-04-03T01:16:34;6.7;54.0
79187;SHT31;68762;51.980;5.646;2023-04-03T01:19:07;6.7;54.5
79187;SHT31;68762;51.980;5.646;2023-04-03T01:23:58;6.7;54.7
79187;SHT31;68762;51.980;5.646;2023-04-03T01:26:28;6.7;54.6
79187;SHT31;68762;51.980;5.646;2023-04-03T01:28:59;6.6;54.6
79187;SHT31;68762;51.980;5.646;2023-04-03T01:34:01;6.6;55.0
79187;SHT31;68762;51.980;5.646;2023-04-03T01:36:31;6.6;54.9
79187;SHT31;68762;51.980;5.646;2023-04-03T01:39:00;6.6;54.9
79187;SHT31;68762;51.980;5.646;2023-04-03T01:41:29;6.6;54.8
79187;SHT31;68762;51.980;5.646;2023-04-03T01:43:58;6.6;54.8
79187;SHT31;68762;51.980;5.646;2023-04-03T01:46:27;6.5;54.9
79187;SHT31;68762;51.980;5.646;2023-04-03T01:48:56;6.5;55.1
79187;SHT31;68762;51.980;5.646;2023-04-03T01:51:24;6.5;55.5
79187;SHT31;68762;51.980;5.646;2023-04-03T01:53:55;6.5;55.1
79187;SHT31;68762;51.980;5.646;2023-04-03T01:56:26;6.5;55.7
79187;SHT31;68762;51.980;5.646;2023-04-03T01:58:55;6.5;55.5
79187;SHT31;68762;51.980;5.646;2023-04-03T02:01:23;6.4;55.9
79187;SHT31;68762;51.980;5.646;2023-04-03T02:03:52;6.4;55.7
79187;SHT31;68762;51.980;5.646;2023-04-03T02:06:21;6.4;55.8
79187;SHT31;68762;51.980;5.646;2023-04-03T02:08:49;6.4;56.0
79187;SHT31;68762;51.980;5.646;2023-04-03T02:11:18;6.4;56.1
79187;SHT31;68762;51.980;5.646;2023-04-03T02:13:48;6.4;56.3
79187;SHT31;68762;51.980;5.646;2023-04-03T02:16:18;6.3;56.4
79187;SHT31;68762;51.980;5.646;2023-04-03T02:18:46;6.4;56.3
79187;SHT31;68762;51.980;5.646;2023-04-03T02:21:16;6.4;56.1
79187;SHT31;68762;51.980;5.646;2023-04-03T02:23:45;6.4;56.3
79187;SHT31;68762;51.980;5.646;2023-04-03T02:26:15;6.4;56.4
79187;SHT31;68762;51.980;5.646;2023-04-03T02:28:44;6.4;56.5
79187;SHT31;68762;51.980;5.646;2023-04-03T02:31:14;6.4;56.2
79187;SHT31;68762;51.980;5.646;2023-04-03T02:33:42;6.4;56.4
79187;SHT31;68762;51.980;5.646;2023-04-03T02:36:12;6.4;56.2
79187;SHT31;68762;51.980;5.646;2023-04-03T02:38:41;6.4;56.6
79187;SHT31;68762;51.980;5.646;2023-04-03T02:41:14;6.4;56.3
79187;SHT31;68762;51.980;5.646;2023-04-03T02:43:43;6.4;56.5
79187;SHT31;68762;51.980;5.646;2023-04-03T02:46:13;6.4;56.7
79187;SHT31;68762;51.980;5.646;2023-04-03T02:48:42;6.4;56.9
79187;SHT31;68762;51.980;5.646;2023-04-03T02:51:11;6.4;57.0
79187;SHT31;68762;51.980;5.646;2023-04-03T02:53:40;6.4;57.0
79187;SHT31;68762;51.980;5.646;2023-04-03T02:56:09;6.4;57.0
79187;SHT31;68762;51.980;5.646;2023-04-03T02:58:38;6.4;57.0
79187;SHT31;68762;51.980;5.646;2023-04-03T03:01:08;6.4;56.8
79187;SHT31;68762;51.980;5.646;2023-04-03T03:03:37;6.4;56.9
79187;SHT31;68762;51.980;5.646;2023-04-03T03:06:07;6.4;56.8
79187;SHT31;68762;51.980;5.646;2023-04-03T03:08:37;6.4;57.1
79187;SHT31;68762;51.980;5.646;2023-04-03T03:11:07;6.4;57.0
79187;SHT31;68762;51.980;5.646;2023-04-03T03:13:38;6.3;57.2
79187;SHT31;68762;51.980;5.646;2023-04-03T03:16:11;6.3;57.0
79187;SHT31;68762;51.980;5.646;2023-04-03T03:18:42;6.3;57.3
79187;SHT31;68762;51.980;5.646;2023-04-03T03:21:11;6.3;57.1
79187;SHT31;68762;51.980;5.646;2023-04-03T03:23:40;6.3;57.0
79187;SHT31;68762;51.980;5.646;2023-04-03T03:26:10;6.3;57.4
79187;SHT31;68762;51.980;5.646;2023-04-03T03:28:39;6.3;57.2
79187;SHT31;68762;51.980;5.646;2023-04-03T03:31:09;6.2;57.5
79187;SHT31;68762;51.980;5.646;2023-04-03T03:33:38;6.2;57.8
79187;SHT31;68762;51.980;5.646;2023-04-03T03:36:08;6.2;57.7
79187;SHT31;68762;51.980;5.646;2023-04-03T03:38:37;6.2;57.7
79187;SHT31;68762;51.980;5.646;2023-04-03T03:41:06;6.2;57.7
79187;SHT31;68762;51.980;5.646;2023-04-03T03:43:35;6.1;57.9
79187;SHT31;68762;51.980;5.646;2023-04-03T03:46:04;6.1;57.9
79187;SHT31;68762;51.980;5.646;2023-04-03T03:48:32;6.1;58.1
79187;SHT31;68762;51.980;5.646;2023-04-03T03:51:02;6.1;58.1
79187;SHT31;68762;51.980;5.646;2023-04-03T03:53:30;6.0;58.3
79187;SHT31;68762;51.980;5.646;2023-04-03T03:55:59;6.0;58.3
79187;SHT31;68762;51.980;5.646;2023-04-03T03:58:27;6.0;58.5
79187;SHT31;68762;51.980;5.646;2023-04-03T04:00:56;6.0;58.4
79187;SHT31;68762;51.980;5.646;2023-04-03T04:03:26;5.9;58.6
79187;SHT31;68762;51.980;5.646;2023-04-03T04:05:55;5.9;58.6
79187;SHT31;68762;51.980;5.646;2023-04-03T04:08:24;5.9;58.4
79187;SHT31;68762;51.980;5.646;2023-04-03T04:10:54;5.9;58.7
79187;SHT31;68762;51.980;5.646;2023-04-03T04:13:23;5.9;58.7
79187;SHT31;68762;51.980;5.646;2023-04-03T04:15:52;5.8;59.3
79187;SHT31;68762;51.980;5.646;2023-04-03T04:18:21;5.8;59.0
79187;SHT31;68762;51.980;5.646;2023-04-03T04:20:50;5.8;59.1
79187;SHT31;68762;51.980;5.646;2023-04-03T04:23:19;5.8;59.3
79187;SHT31;68762;51.980;5.646;2023-04-03T04:25:48;5.8;59.2
79187;SHT31;68762;51.980;5.646;2023-04-03T04:28:18;5.7;59.1
79187;SHT31;68762;51.980;5.646;2023-04-03T04:30:46;5.7;59.3
79187;SHT31;68762;51.980;5.646;2023-04-03T04:33:15;5.7;59.3
79187;SHT31;68762;51.980;5.646;2023-04-03T04:35:47;5.7;59.6
79187;SHT31;68762;51.980;5.646;2023-04-03T04:38:16;5.7;59.5
79187;SHT31;68762;51.980;5.646;2023-04-03T04:40:44;5.6;59.2
79187;SHT31;68762;51.980;5.646;2023-04-03T04:43:14;5.6;59.3
79187;SHT31;68762;51.980;5.646;2023-04-03T04:45:43;5.6;59.6
79187;SHT31;68762;51.980;5.646;2023-04-03T04:48:12;5.6;59.6
79187;SHT31;68762;51.980;5.646;2023-04-03T04:50:41;5.6;59.5
79187;SHT31;68762;51.980;5.646;2023-04-03T04:53:09;5.5;59.9
79187;SHT31;68762;51.980;5.646;2023-04-03T04:55:38;5.5;59.9
79187;SHT31;68762;51.980;5.646;2023-04-03T04:58:08;5.5;60.0
79187;SHT31;68762;51.980;5.646;2023-04-03T05:00:37;5.5;59.9
79187;SHT31;68762;51.980;5.646;2023-04-03T05:03:06;5.4;59.9
79187;SHT31;68762;51.980;5.646;2023-04-03T05:05:34;5.4;60.1
79187;SHT31;68762;51.980;5.646;2023-04-03T05:08:04;5.4;60.3
79187;SHT31;68762;51.980;5.646;2023-04-03T05:10:34;5.3;60.2
79187;SHT31;68762;51.980;5.646;2023-04-03T05:13:03;5.3;60.2
79187;SHT31;68762;51.980;5.646;2023-04-03T05:15:31;5.3;60.4
79187;SHT31;68762;51.980;5.646;2023-04-03T05:18:00;5.3;60.5
79187;SHT31;68762;51.980;5.646;2023-04-03T05:20:29;5.2;60.4
79187;SHT31;68762;51.980;5.646;2023-04-03T05:22:58;5.2;60.4
79187;SHT31;68762;51.980;5.646;2023-04-03T05:25:28;5.2;60.7
79187;SHT31;68762;51.980;5.646;2023-04-03T05:27:57;5.2;60.6
79187;SHT31;68762;51.980;5.646;2023-04-03T05:30:27;5.2;61.0
79187;SHT31;68762;51.980;5.646;2023-04-03T05:32:55;5.2;61.0
79187;SHT31;68762;51.980;5.646;2023-04-03T05:35:26;5.2;61.0
79187;SHT31;68762;51.980;5.646;2023-04-03T05:37:55;5.2;60.7
79187;SHT31;68762;51.980;5.646;2023-04-03T05:40:23;5.2;60.5
79187;SHT31;68762;51.980;5.646;2023-04-03T05:42:52;5.2;60.5
79187;SHT31;68762;51.980;5.646;2023-04-03T05:45:22;5.2;60.5
79187;SHT31;68762;51.980;5.646;2023-04-03T05:47:51;5.2;60.5
79187;SHT31;68762;51.980;5.646;2023-04-03T05:50:21;5.2;60.5
79187;SHT31;68762;51.980;5.646;2023-04-03T05:52:52;5.2;60.8
79187;SHT31;68762;51.980;5.646;2023-04-03T05:55:24;5.1;60.7
79187;SHT31;68762;51.980;5.646;2023-04-03T05:57:53;5.1;60.9
79187;SHT31;68762;51.980;5.646;2023-04-03T06:00:22;5.1;60.8
79187;SHT31;68762;51.980;5.646;2023-04-03T06:02:51;5.1;60.9
79187;SHT31;68762;51.980;5.646;2023-04-03T06:05:19;5.2;61.0
79187;SHT31;68762;51.980;5.646;2023-04-03T06:07:49;5.2;61.1
79187;SHT31;68762;51.980;5.646;2023-04-03T06:10:17;5.2;60.9
79187;SHT31;68762;51.980;5.646;2023-04-03T06:12:46;5.2;60.8
79187;SHT31;68762;51.980;5.646;2023-04-03T06:15:15;5.3;60.8
79187;SHT31;68762;51.980;5.646;2023-04-03T06:17:44;5.4;60.5
79187;SHT31;68762;51.980;5.646;2023-04-03T06:20:15;5.6;60.0
79187;SHT31;68762;51.980;5.646;2023-04-03T06:22:44;5.8;59.8
79187;SHT31;68762;51.980;5.646;2023-04-03T06:25:12;6.1;58.8
79187;SHT31;68762;51.980;5.646;2023-04-03T06:27:44;6.4;57.4
79187;SHT31;68762;51.980;5.646;2023-04-03T06:30:13;6.7;56.4
79187;SHT31;68762;51.980;5.646;2023-04-03T06:32:41;6.9;55.9
79187;SHT31;68762;51.980;5.646;2023-04-03T06:35:10;7.1;55.3
79187;SHT31;68762;51.980;5.646;2023-04-03T06:37:39;7.2;54.5
79187;SHT31;68762;51.980;5.646;2023-04-03T06:40:18;7.4;53.9
79187;SHT31;68762;51.980;5.646;2023-04-03T06:42:47;7.5;53.6
79187;SHT31;68762;51.980;5.646;2023-04-03T06:45:17;7.6;53.1
79187;SHT31;68762;51.980;5.646;2023-04-03T06:47:48;7.6;53.0
79187;SHT31;68762;51.980;5.646;2023-04-03T06:50:17;7.7;52.5
79187;SHT31;68762;51.980;5.646;2023-04-03T06:52:46;7.8;52.8
79187;SHT31;68762;51.980;5.646;2023-04-03T06:55:17;7.9;52.9
79187;SHT31;68762;51.980;5.646;2023-04-03T06:57:47;8.2;51.9
79187;SHT31;68762;51.980;5.646;2023-04-03T07:00:17;8.5;52.5
79187;SHT31;68762;51.980;5.646;2023-04-03T07:02:46;8.9;51.1
79187;SHT31;68762;51.980;5.646;2023-04-03T07:05:15;9.3;49.7
79187;SHT31;68762;51.980;5.646;2023-04-03T07:07:43;9.7;48.2
79187;SHT31;68762;51.980;5.646;2023-04-03T07:10:12;10.1;46.6
79187;SHT31;68762;51.980;5.646;2023-04-03T07:12:41;10.5;46.6
79187;SHT31;68762;51.980;5.646;2023-04-03T07:15:10;10.8;44.7
79187;SHT31;68762;51.980;5.646;2023-04-03T07:17:41;11.2;45.5
79187;SHT31;68762;51.980;5.646;2023-04-03T07:20:11;11.5;43.0
79187;SHT31;68762;51.980;5.646;2023-04-03T07:22:41;11.8;43.2
79187;SHT31;68762;51.980;5.646;2023-04-03T07:25:12;12.1;41.4
79187;SHT31;68762;51.980;5.646;2023-04-03T07:27:40;12.4;41.2
79187;SHT31;68762;51.980;5.646;2023-04-03T07:30:10;12.7;39.6
79187;SHT31;68762;51.980;5.646;2023-04-03T07:32:40;13.0;39.8
79187;SHT31;68762;51.980;5.646;2023-04-03T07:35:09;13.3;39.0
79187;SHT31;68762;51.980;5.646;2023-04-03T07:37:38;13.7;37.9
79187;SHT31;68762;51.980;5.646;2023-04-03T07:40:08;14.0;36.5
79187;SHT31;68762;51.980;5.646;2023-04-03T07:42:38;14.4;35.8
79187;SHT31;68762;51.980;5.646;2023-04-03T07:45:09;14.7;35.5
79187;SHT31;68762;51.980;5.646;2023-04-03T07:47:39;15.0;33.9
79187;SHT31;68762;51.980;5.646;2023-04-03T07:50:09;15.4;33.3
79187;SHT31;68762;51.980;5.646;2023-04-03T07:52:37;15.7;32.7
79187;SHT31;68762;51.980;5.646;2023-04-03T07:55:07;16.0;32.2
79187;SHT31;68762;51.980;5.646;2023-04-03T07:57:37;16.2;31.0
79187;SHT31;68762;51.980;5.646;2023-04-03T08:00:08;16.5;30.5
79187;SHT31;68762;51.980;5.646;2023-04-03T08:02:38;16.8;31.0
79187;SHT31;68762;51.980;5.646;2023-04-03T08:05:08;17.1;31.0
79187;SHT31;68762;51.980;5.646;2023-04-03T08:07:38;17.4;28.2
79187;SHT31;68762;51.980;5.646;2023-04-03T08:10:08;17.8;29.0
79187;SHT31;68762;51.980;5.646;2023-04-03T08:12:37;18.0;27.9
79187;SHT31;68762;51.980;5.646;2023-04-03T08:15:06;18.3;27.5
79187;SHT31;68762;51.980;5.646;2023-04-03T08:17:35;18.5;26.8
79187;SHT31;68762;51.980;5.646;2023-04-03T08:20:05;18.6;26.1
79187;SHT31;68762;51.980;5.646;2023-04-03T08:22:36;18.8;24.9
79187;SHT31;68762;51.980;5.646;2023-04-03T08:25:05;18.9;24.4
79187;SHT31;68762;51.980;5.646;2023-04-03T08:27:34;19.1;23.4
79187;SHT31;68762;51.980;5.646;2023-04-03T08:30:04;19.2;24.0
79187;SHT31;68762;51.980;5.646;2023-04-03T08:32:33;19.3;22.9
79187;SHT31;68762;51.980;5.646;2023-04-03T08:35:02;19.4;23.8
79187;SHT31;68762;51.980;5.646;2023-04-03T08:37:31;19.5;22.5
79187;SHT31;68762;51.980;5.646;2023-04-03T08:40:03;19.6;23.0
79187;SHT31;68762;51.980;5.646;2023-04-03T08:42:40;19.7;22.3
79187;SHT31;68762;51.980;5.646;2023-04-03T08:45:15;19.8;21.6
79187;SHT31;68762;51.980;5.646;2023-04-03T08:47:48;19.9;20.8
79187;SHT31;68762;51.980;5.646;2023-04-03T08:50:20;20.0;21.6
79187;SHT31;68762;51.980;5.646;2023-04-03T08:52:52;20.1;21.1
79187;SHT31;68762;51.980;5.646;2023-04-03T08:55:27;20.2;21.0
79187;SHT31;68762;51.980;5.646;2023-04-03T08:58:01;20.4;20.5
79187;SHT31;68762;51.980;5.646;2023-04-03T09:00:37;20.4;18.9
79187;SHT31;68762;51.980;5.646;2023-04-03T09:03:13;20.5;18.9
79187;SHT31;68762;51.980;5.646;2023-04-03T09:05:48;20.6;17.9
79187;SHT31;68762;51.980;5.646;2023-04-03T09:08:22;20.7;18.1
79187;SHT31;68762;51.980;5.646;2023-04-03T09:11:07;20.8;18.7
79187;SHT31;68762;51.980;5.646;2023-04-03T09:13:46;21.0;17.8
79187;SHT31;68762;51.980;5.646;2023-04-03T09:16:25;21.2;16.7
79187;SHT31;68762;51.980;5.646;2023-04-03T09:19:06;21.4;16.2
79187;SHT31;68762;51.980;5.646;2023-04-03T09:21:38;21.5;15.3
79187;SHT31;68762;51.980;5.646;2023-04-03T09:24:11;21.7;14.3
79187;SHT31;68762;51.980;5.646;2023-04-03T09:26:44;21.9;14.4
79187;SHT31;68762;51.980;5.646;2023-04-03T09:29:18;22.0;15.1
79187;SHT31;68762;51.980;5.646;2023-04-03T09:31:52;22.2;15.5
79187;SHT31;68762;51.980;5.646;2023-04-03T09:34:26;22.5;14.0
79187;SHT31;68762;51.980;5.646;2023-04-03T09:36:56;22.7;13.8
79187;SHT31;68762;51.980;5.646;2023-04-03T09:39:28;22.9;13.2
79187;SHT31;68762;51.980;5.646;2023-04-03T09:42:00;23.0;13.4
79187;SHT31;68762;51.980;5.646;2023-04-03T09:44:31;23.2;12.7
79187;SHT31;68762;51.980;5.646;2023-04-03T09:47:21;23.3;13.2
79187;SHT31;68762;51.980;5.646;2023-04-03T09:50:15;23.3;13.9
79187;SHT31;68762;51.980;5.646;2023-04-03T09:52:45;23.4;13.4
79187;SHT31;68762;51.980;5.646;2023-04-03T09:55:18;23.4;13.3
79187;SHT31;68762;51.980;5.646;2023-04-03T09:57:49;23.4;14.4
79187;SHT31;68762;51.980;5.646;2023-04-03T10:00:25;23.5;14.4
79187;SHT31;68762;51.980;5.646;2023-04-03T10:02:58;23.6;14.4
79187;SHT31;68762;51.980;5.646;2023-04-03T10:05:31;23.7;14.6
79187;SHT31;68762;51.980;5.646;2023-04-03T10:08:44;23.7;14.8
79187;SHT31;68762;51.980;5.646;2023-04-03T10:11:18;23.7;14.4
79187;SHT31;68762;51.980;5.646;2023-04-03T10:13:53;23.7;13.9
79187;SHT31;68762;51.980;5.646;2023-04-03T10:16:26;23.6;14.1
79187;SHT31;68762;51.980;5.646;2023-04-03T10:19:04;23.4;14.4
79187;SHT31;68762;51.980;5.646;2023-04-03T10:21:43;23.2;14.8
79187;SHT31;68762;51.980;5.646;2023-04-03T10:24:21;23.0;13.9
79187;SHT31;68762;51.980;5.646;2023-04-03T10:26:58;22.7;13.9
79187;SHT31;68762;51.980;5.646;2023-04-03T10:29:40;22.3;14.8
79187;SHT31;68762;51.980;5.646;2023-04-03T10:32:27;21.9;14.6
79187;SHT31;68762;51.980;5.646;2023-04-03T10:35:06;21.6;15.5
79187;SHT31;68762;51.980;5.646;2023-04-03T10:37:50;21.3;16.3
79187;SHT31;68762;51.980;5.646;2023-04-03T10:40:33;21.0;15.9
79187;SHT31;68762;51.980;5.646;2023-04-03T10:43:12;20.8;15.4
79187;SHT31;68762;51.980;5.646;2023-04-03T10:45:57;20.7;18.2
79187;SHT31;68762;51.980;5.646;2023-04-03T10:48:43;20.6;18.4
79187;SHT31;68762;51.980;5.646;2023-04-03T10:51:23;20.6;19.0
79187;SHT31;68762;51.980;5.646;2023-04-03T10:53:57;20.7;17.8
79187;SHT31;68762;51.980;5.646;2023-04-03T10:56:36;20.7;17.1
79187;SHT31;68762;51.980;5.646;2023-04-03T10:59:18;20.7;17.9
79187;SHT31;68762;51.980;5.646;2023-04-03T11:01:53;20.7;18.1
79187;SHT31;68762;51.980;5.646;2023-04-03T11:04:29;20.6;17.4
79187;SHT31;68762;51.980;5.646;2023-04-03T11:07:03;20.5;17.8
79187;SHT31;68762;51.980;5.646;2023-04-03T11:09:39;20.3;16.7
79187;SHT31;68762;51.980;5.646;2023-04-03T11:12:14;20.1;18.8
79187;SHT31;68762;51.980;5.646;2023-04-03T11:14:47;19.9;20.0
79187;SHT31;68762;51.980;5.646;2023-04-03T11:17:30;19.8;20.1
79187;SHT31;68762;51.980;5.646;2023-04-03T11:20:05;19.7;18.6
79187;SHT31;68762;51.980;5.646;2023-04-03T11:22:41;19.7;19.5
79187;SHT31;68762;51.980;5.646;2023-04-03T11:25:20;19.7;18.6
79187;SHT31;68762;51.980;5.646;2023-04-03T11:27:54;19.9;19.0
79187;SHT31;68762;51.980;5.646;2023-04-03T11:30:30;20.3;19.4
79187;SHT31;68762;51.980;5.646;2023-04-03T11:33:09;20.8;18.6
79187;SHT31;68762;51.980;5.646;2023-04-03T11:35:44;21.4;17.5
79187;SHT31;68762;51.980;5.646;2023-04-03T11:38:21;21.8;16.7
79187;SHT31;68762;51.980;5.646;2023-04-03T11:40:51;22.0;17.0
79187;SHT31;68762;51.980;5.646;2023-04-03T11:43:26;22.4;17.4
79187;SHT31;68762;51.980;5.646;2023-04-03T11:45:58;22.9;17.4
79187;SHT31;68762;51.980;5.646;2023-04-03T11:48:46;23.4;17.1
79187;SHT31;68762;51.980;5.646;2023-04-03T11:51:41;23.9;16.9
79187;SHT31;68762;51.980;5.646;2023-04-03T11:56:02;24.4;14.6
79187;SHT31;68762;51.980;5.646;2023-04-03T11:58:33;24.9;14.5
79187;SHT31;68762;51.980;5.646;2023-04-03T12:01:05;25.1;14.2
79187;SHT31;68762;51.980;5.646;2023-04-03T12:05:24;25.3;14.7
79187;SHT31;68762;51.980;5.646;2023-04-03T12:08:15;25.8;14.0
79187;SHT31;68762;51.980;5.646;2023-04-03T12:11:15;26.0;13.9
79187;SHT31;68762;51.980;5.646;2023-04-03T12:14:04;26.2;14.8
79187;SHT31;68762;51.980;5.646;2023-04-03T12:16:43;26.4;14.0
79187;SHT31;68762;51.980;5.646;2023-04-03T12:24:27;27.1;14.6
79187;SHT31;68762;51.980;5.646;2023-04-03T12:27:09;27.4;13.9
79187;SHT31;68762;51.980;5.646;2023-04-03T12:29:49;27.5;13.7
79187;SHT31;68762;51.980;5.646;2023-04-03T12:32:30;27.6;14.7
79187;SHT31;68762;51.980;5.646;2023-04-03T12:35:19;27.7;13.2
79187;SHT31;68762;51.980;5.646;2023-04-03T12:38:15;27.6;14.1
79187;SHT31;68762;51.980;5.646;2023-04-03T12:40:50;27.4;13.6
79187;SHT31;68762;51.980;5.646;2023-04-03T12:43:39;26.8;15.0
79187;SHT31;68762;51.980;5.646;2023-04-03T12:46:15;26.0;15.7
79187;SHT31;68762;51.980;5.646;2023-04-03T12:48:51;25.3;15.0
79187;SHT31;68762;51.980;5.646;2023-04-03T12:51:29;24.5;16.3
79187;SHT31;68762;51.980;5.646;2023-04-03T12:54:02;23.6;17.4
79187;SHT31;68762;51.980;5.646;2023-04-03T12:56:32;23.1;17.5
79187;SHT31;68762;51.980;5.646;2023-04-03T12:59:16;22.7;19.2
79187;SHT31;68762;51.980;5.646;2023-04-03T13:01:56;22.5;17.9
79187;SHT31;68762;51.980;5.646;2023-04-03T13:04:27;22.4;17.8
79187;SHT31;68762;51.980;5.646;2023-04-03T13:06:56;22.3;18.6
79187;SHT31;68762;51.980;5.646;2023-04-03T13:09:27;22.3;18.0
79187;SHT31;68762;51.980;5.646;2023-04-03T13:11:59;22.3;16.7
79187;SHT31;68762;51.980;5.646;2023-04-03T13:14:29;22.4;16.6
79187;SHT31;68762;51.980;5.646;2023-04-03T13:17:04;22.4;18.7
79187;SHT31;68762;51.980;5.646;2023-04-03T13:19:32;22.6;17.3
79187;SHT31;68762;51.980;5.646;2023-04-03T13:22:05;22.8;17.6
79187;SHT31;68762;51.980;5.646;2023-04-03T13:24:39;23.2;17.1
79187;SHT31;68762;51.980;5.646;2023-04-03T13:27:11;23.6;16.7
79187;SHT31;68762;51.980;5.646;2023-04-03T13:29:41;24.0;15.8
79187;SHT31;68762;51.980;5.646;2023-04-03T13:32:19;24.3;16.1
79187;SHT31;68762;51.980;5.646;2023-04-03T13:34:49;24.6;15.9
79187;SHT31;68762;51.980;5.646;2023-04-03T13:37:23;24.9;16.0
79187;SHT31;68762;51.980;5.646;2023-04-03T13:40:01;25.2;16.6
79187;SHT31;68762;51.980;5.646;2023-04-03T13:42:33;25.5;16.8
79187;SHT31;68762;51.980;5.646;2023-04-03T13:45:17;25.8;15.5
79187;SHT31;68762;51.980;5.646;2023-04-03T13:47:48;26.2;15.6
79187;SHT31;68762;51.980;5.646;2023-04-03T13:50:20;26.4;14.9
79187;SHT31;68762;51.980;5.646;2023-04-03T13:52:53;26.5;15.1
79187;SHT31;68762;51.980;5.646;2023-04-03T13:55:26;26.7;16.0
79187;SHT31;68762;51.980;5.646;2023-04-03T13:57:59;26.9;14.1
79187;SHT31;68762;51.980;5.646;2023-04-03T14:00:33;27.0;14.3
79187;SHT31;68762;51.980;5.646;2023-04-03T14:03:16;27.0;14.9
79187;SHT31;68762;51.980;5.646;2023-04-03T14:05:47;27.1;14.6
79187;SHT31;68762;51.980;5.646;2023-04-03T14:08:16;27.1;13.8
79187;SHT31;68762;51.980;5.646;2023-04-03T14:10:46;27.2;15.9
79187;SHT31;68762;51.980;5.646;2023-04-03T14:13:20;27.2;14.5
79187;SHT31;68762;51.980;5.646;2023-04-03T14:15:51;27.2;14.1
79187;SHT31;68762;51.980;5.646;2023-04-03T14:18:20;27.3;14.3
79187;SHT31;68762;51.980;5.646;2023-04-03T14:20:49;27.3;14.5
79187;SHT31;68762;51.980;5.646;2023-04-03T14:23:18;27.4;14.7
79187;SHT31;68762;51.980;5.646;2023-04-03T14:25:49;27.4;14.5
79187;SHT31;68762;51.980;5.646;2023-04-03T14:28:20;27.4;15.1
79187;SHT31;68762;51.980;5.646;2023-04-03T14:30:50;27.4;14.2
79187;SHT31;68762;51.980;5.646;2023-04-03T14:33:21;27.3;14.1
79187;SHT31;68762;51.980;5.646;2023-04-03T14:35:50;27.2;14.6
79187;SHT31;68762;51.980;5.646;2023-04-03T14:38:24;27.1;14.3
79187;SHT31;68762;51.980;5.646;2023-04-03T14:40:55;27.0;14.7
79187;SHT31;68762;51.980;5.646;2023-04-03T14:43:24;26.9;15.0
79187;SHT31;68762;51.980;5.646;2023-04-03T14:45:54;26.8;14.9
79187;SHT31;68762;51.980;5.646;2023-04-03T14:48:25;26.8;15.1
79187;SHT31;68762;51.980;5.646;2023-04-03T14:50:54;26.7;15.5
79187;SHT31;68762;51.980;5.646;2023-04-03T14:53:25;26.7;15.5
79187;SHT31;68762;51.980;5.646;2023-04-03T14:55:56;26.6;15.2
79187;SHT31;68762;51.980;5.646;2023-04-03T14:58:24;26.5;15.9
79187;SHT31;68762;51.980;5.646;2023-04-03T15:00:53;26.4;15.7
79187;SHT31;68762;51.980;5.646;2023-04-03T15:03:22;26.4;14.5
79187;SHT31;68762;51.980;5.646;2023-04-03T15:05:51;26.2;14.4
79187;SHT31;68762;51.980;5.646;2023-04-03T15:08:24;25.7;15.8
79187;SHT31;68762;51.980;5.646;2023-04-03T15:10:55;25.1;17.0
79187;SHT31;68762;51.980;5.646;2023-04-03T15:13:25;24.5;17.3
79187;SHT31;68762;51.980;5.646;2023-04-03T15:15:54;24.0;18.0
79187;SHT31;68762;51.980;5.646;2023-04-03T15:18:25;23.6;18.6
79187;SHT31;68762;51.980;5.646;2023-04-03T15:20:54;23.2;18.6
79187;SHT31;68762;51.980;5.646;2023-04-03T15:23:23;22.8;18.2
79187;SHT31;68762;51.980;5.646;2023-04-03T15:25:53;22.3;19.3
79187;SHT31;68762;51.980;5.646;2023-04-03T15:28:28;21.8;20.0
79187;SHT31;68762;51.980;5.646;2023-04-03T15:30:58;21.5;20.0
79187;SHT31;68762;51.980;5.646;2023-04-03T15:33:28;21.2;20.3
79187;SHT31;68762;51.980;5.646;2023-04-03T15:35:59;21.0;20.1
79187;SHT31;68762;51.980;5.646;2023-04-03T15:38:28;20.7;21.2
79187;SHT31;68762;51.980;5.646;2023-04-03T15:40:57;20.5;20.9
79187;SHT31;68762;51.980;5.646;2023-04-03T15:43:25;20.3;21.4
79187;SHT31;68762;51.980;5.646;2023-04-03T15:45:56;20.0;21.9
79187;SHT31;68762;51.980;5.646;2023-04-03T15:48:27;19.8;22.1
79187;SHT31;68762;51.980;5.646;2023-04-03T15:50:57;19.6;23.0
79187;SHT31;68762;51.980;5.646;2023-04-03T15:53:25;19.5;21.9
79187;SHT31;68762;51.980;5.646;2023-04-03T15:55:56;19.3;22.6
79187;SHT31;68762;51.980;5.646;2023-04-03T15:58:25;19.2;22.0
79187;SHT31;68762;51.980;5.646;2023-04-03T16:00:54;19.1;22.7
79187;SHT31;68762;51.980;5.646;2023-04-03T16:03:23;18.9;23.7
79187;SHT31;68762;51.980;5.646;2023-04-03T16:05:52;18.7;23.6
79187;SHT31;68762;51.980;5.646;2023-04-03T16:08:22;18.6;22.3
79187;SHT31;68762;51.980;5.646;2023-04-03T16:10:51;18.4;22.6
79187;SHT31;68762;51.980;5.646;2023-04-03T16:13:22;18.2;23.5
79187;SHT31;68762;51.980;5.646;2023-04-03T16:15:50;18.0;24.7
79187;SHT31;68762;51.980;5.646;2023-04-03T16:18:20;17.9;24.9
79187;SHT31;68762;51.980;5.646;2023-04-03T16:20:52;17.8;24.3
79187;SHT31;68762;51.980;5.646;2023-04-03T16:23:22;17.6;24.7
79187;SHT31;68762;51.980;5.646;2023-04-03T16:25:53;17.5;24.4
79187;SHT31;68762;51.980;5.646;2023-04-03T16:28:21;17.3;24.2
79187;SHT31;68762;51.980;5.646;2023-04-03T16:30:51;17.1;24.6
79187;SHT31;68762;51.980;5.646;2023-04-03T16:33:20;17.0;24.0
79187;SHT31;68762;51.980;5.646;2023-04-03T16:35:48;16.8;25.2
79187;SHT31;68762;51.980;5.646;2023-04-03T16:38:19;16.6;24.9
79187;SHT31;68762;51.980;5.646;2023-04-03T16:40:48;16.4;25.6
79187;SHT31;68762;51.980;5.646;2023-04-03T16:43:18;16.3;25.5
79187;SHT31;68762;51.980;5.646;2023-04-03T16:45:47;16.1;25.8
79187;SHT31;68762;51.980;5.646;2023-04-03T16:48:16;16.0;26.6
79187;SHT31;68762;51.980;5.646;2023-04-03T16:50:48;15.8;26.8
79187;SHT31;68762;51.980;5.646;2023-04-03T16:53:20;15.7;26.9